createdAt,value
2023-01-13T00:00:34.568Z,90.00
2023-01-13T00:03:01.505Z,90.00
2023-01-13T00:05:28.820Z,90.10
2023-01-13T00:07:55.167Z,90.00
2023-01-13T00:10:21.673Z,90.20
2023-01-13T00:12:48.839Z,90.60
2023-01-13T00:15:15.158Z,90.60
2023-01-13T00:17:41.483Z,90.90
2023-01-13T00:20:09.049Z,91.30
2023-01-13T00:22:35.477Z,91.10
2023-01-13T00:25:04.138Z,91.20
2023-01-13T00:27:30.997Z,91.60
2023-01-13T00:29:57.244Z,91.30
2023-01-13T00:32:23.562Z,91.40
2023-01-13T00:34:55.004Z,91.30
2023-01-13T00:37:21.351Z,91.40
2023-01-13T00:39:48.618Z,91.20
2023-01-13T00:42:33.457Z,91.30
2023-01-13T00:44:59.743Z,91.40
2023-01-13T00:47:27.034Z,91.50
2023-01-13T00:49:53.367Z,91.50
2023-01-13T00:52:19.604Z,91.40
2023-01-13T00:54:45.928Z,91.80
2023-01-13T00:57:12.353Z,91.80
2023-01-13T00:59:38.579Z,92.00
2023-01-13T01:02:05.510Z,92.30
2023-01-13T01:04:32.169Z,92.50
2023-01-13T01:06:58.490Z,94.20
2023-01-13T01:09:31.988Z,92.30
2023-01-13T01:11:59.322Z,92.00
2023-01-13T01:14:26.663Z,92.40
2023-01-13T01:16:53.663Z,92.20
2023-01-13T01:19:20.180Z,92.00
2023-01-13T01:21:46.791Z,92.00
2023-01-13T01:24:13.149Z,92.10
2023-01-13T01:26:41.245Z,91.90
2023-01-13T01:29:08.569Z,91.70
2023-01-13T01:31:34.886Z,91.40
2023-01-13T01:34:01.351Z,90.80
2023-01-13T01:36:30.571Z,91.20
2023-01-13T01:38:57.792Z,90.70
2023-01-13T01:41:26.558Z,90.10
2023-01-13T01:44:10.088Z,90.60
2023-01-13T01:46:43.995Z,90.40
2023-01-13T01:49:24.673Z,90.20
2023-01-13T01:51:56.634Z,90.10
2023-01-13T01:54:27.475Z,89.70
2023-01-13T01:56:53.798Z,89.80
2023-01-13T01:59:20.035Z,89.50
2023-01-13T02:01:46.483Z,89.50
2023-01-13T02:04:20.300Z,90.00
2023-01-13T02:06:46.903Z,90.00
2023-01-13T02:09:13.237Z,90.10
2023-01-13T02:11:58.120Z,90.40
2023-01-13T02:14:26.115Z,90.30
2023-01-13T02:18:28.030Z,90.70
2023-01-13T02:22:55.203Z,90.30
2023-01-13T02:28:21.442Z,90.40
2023-01-13T02:31:21.476Z,90.00
2023-01-13T02:34:00.486Z,90.30
2023-01-13T02:36:55.604Z,89.90
2023-01-13T02:40:19.519Z,90.00
2023-01-13T02:43:53.692Z,89.70
2023-01-13T02:46:31.299Z,88.90
2023-01-13T02:48:58.631Z,90.30
2023-01-13T02:51:25.693Z,90.20
2023-01-13T02:54:00.036Z,89.90
2023-01-13T02:56:26.443Z,89.50
2023-01-13T02:58:53.381Z,90.00
2023-01-13T03:01:20.017Z,89.40
2023-01-13T03:03:46.800Z,88.50
2023-01-13T03:06:29.266Z,88.50
2023-01-13T03:10:10.249Z,88.10
2023-01-13T03:12:50.914Z,87.80
2023-01-13T03:16:59.148Z,87.30
2023-01-13T03:20:27.188Z,87.60
2023-01-13T03:23:30.502Z,87.40
2023-01-13T03:26:04.303Z,87.70
2023-01-13T03:28:33.334Z,87.80
2023-01-13T03:31:06.102Z,88.00
2023-01-13T03:33:35.533Z,87.90
2023-01-13T03:36:07.659Z,88.50
2023-01-13T03:38:42.261Z,89.90
2023-01-13T03:42:02.245Z,90.20
2023-01-13T03:44:37.371Z,90.60
2023-01-13T03:47:21.674Z,91.00
2023-01-13T03:50:12.686Z,91.00
2023-01-13T03:52:48.192Z,91.00
2023-01-13T03:55:17.936Z,91.00
2023-01-13T03:57:53.384Z,90.80
2023-01-13T04:00:21.214Z,91.00
2023-01-13T04:02:50.817Z,91.00
2023-01-13T04:05:17.248Z,90.90
2023-01-13T04:08:26.879Z,90.60
2023-01-13T04:11:15.681Z,90.40
2023-01-13T04:13:42.892Z,90.80
2023-01-13T04:16:10.523Z,90.50
2023-01-13T04:18:38.830Z,90.30
2023-01-13T04:21:05.858Z,90.20
2023-01-13T04:23:32.187Z,90.30
2023-01-13T04:25:59.054Z,90.00
2023-01-13T04:28:25.423Z,89.80
2023-01-13T04:30:51.696Z,89.90
2023-01-13T04:33:18.601Z,89.90
2023-01-13T04:35:45.516Z,89.40
2023-01-13T04:38:13.864Z,88.80
2023-01-13T04:40:40.489Z,87.90
2023-01-13T04:43:06.636Z,87.90
2023-01-13T04:45:33.821Z,87.50
2023-01-13T04:48:00.004Z,87.20
2023-01-13T04:50:26.362Z,85.80
2023-01-13T04:52:52.998Z,85.90
2023-01-13T04:55:19.957Z,86.30
2023-01-13T04:57:46.083Z,85.30
2023-01-13T05:00:14.508Z,85.50
2023-01-13T05:02:40.629Z,84.80
2023-01-13T05:05:07.480Z,84.50
2023-01-13T05:07:34.089Z,85.10
2023-01-13T05:10:00.252Z,85.20
2023-01-13T05:12:44.797Z,85.70
2023-01-13T05:15:32.579Z,86.30
2023-01-13T05:17:59.727Z,87.20
2023-01-13T05:20:26.972Z,87.90
2023-01-13T05:23:11.428Z,87.10
2023-01-13T05:25:39.270Z,87.60
2023-01-13T05:28:05.627Z,87.80
2023-01-13T05:30:33.860Z,88.40
2023-01-13T05:33:00.399Z,88.00
2023-01-13T05:35:28.894Z,87.80
2023-01-13T05:37:55.301Z,88.50
2023-01-13T05:40:40.385Z,88.30
2023-01-13T05:43:20.127Z,87.70
2023-01-13T05:47:42.281Z,87.40
2023-01-13T05:50:10.616Z,87.20
2023-01-13T05:52:37.828Z,87.10
2023-01-13T05:55:04.880Z,87.60
2023-01-13T05:57:30.983Z,87.10
2023-01-13T05:59:57.806Z,87.80
2023-01-13T06:02:25.166Z,87.60
2023-01-13T06:04:51.538Z,87.80
2023-01-13T06:07:17.841Z,88.50
2023-01-13T06:09:44.328Z,89.10
2023-01-13T06:12:11.419Z,89.50
2023-01-13T06:14:40.465Z,90.00
2023-01-13T06:17:08.565Z,89.70
2023-01-13T06:19:34.778Z,89.60
2023-01-13T06:22:05.941Z,89.70
2023-01-13T06:24:32.406Z,90.10
2023-01-13T06:26:58.539Z,90.00
2023-01-13T06:29:24.746Z,89.50
2023-01-13T06:31:50.982Z,89.80
2023-01-13T06:34:17.915Z,89.50
2023-01-13T06:36:46.589Z,89.40
2023-01-13T06:39:15.174Z,88.90
2023-01-13T06:42:00.739Z,88.50
2023-01-13T06:44:27.302Z,88.40
2023-01-13T06:46:53.604Z,89.30
2023-01-13T06:49:21.548Z,89.60
2023-01-13T06:51:48.127Z,89.60
2023-01-13T06:54:14.353Z,89.10
2023-01-13T06:56:40.575Z,89.50
2023-01-13T06:59:06.940Z,89.10
2023-01-13T07:01:33.180Z,89.80
2023-01-13T07:03:59.470Z,89.40
2023-01-13T07:06:25.741Z,89.40
2023-01-13T07:08:52.386Z,89.60
2023-01-13T07:11:18.869Z,89.70
2023-01-13T07:14:03.742Z,89.40
2023-01-13T07:16:30.262Z,90.20
2023-01-13T07:18:56.569Z,89.60
2023-01-13T07:21:22.820Z,90.00
2023-01-13T07:23:49.648Z,89.80
2023-01-13T07:26:15.992Z,89.80
2023-01-13T07:28:42.786Z,89.70
2023-01-13T07:31:20.348Z,89.20
2023-01-13T07:33:47.798Z,89.40
2023-01-13T07:36:14.430Z,89.30
2023-01-13T07:38:40.747Z,89.20
2023-01-13T07:41:25.602Z,89.50
2023-01-13T07:43:51.859Z,88.60
2023-01-13T07:46:18.389Z,89.10
2023-01-13T07:48:46.691Z,89.40
2023-01-13T07:51:13.006Z,89.40
2023-01-13T07:53:40.351Z,89.40
2023-01-13T07:56:07.785Z,89.10
2023-01-13T07:58:36.394Z,89.20
2023-01-13T08:01:10.838Z,89.30
2023-01-13T08:03:37.674Z,89.10
2023-01-13T08:06:05.112Z,88.50
2023-01-13T08:08:31.813Z,88.70
2023-01-13T08:11:01.547Z,88.60
2023-01-13T08:13:27.913Z,88.80
2023-01-13T08:15:59.466Z,88.00
2023-01-13T08:18:25.682Z,88.00
2023-01-13T08:20:52.704Z,87.00
2023-01-13T08:23:20.093Z,87.00
2023-01-13T08:25:46.381Z,86.70
2023-01-13T08:28:12.943Z,86.20
2023-01-13T08:30:39.225Z,86.80
2023-01-13T08:33:09.383Z,85.50
2023-01-13T08:35:37.946Z,84.90
2023-01-13T08:38:04.651Z,85.40
2023-01-13T08:40:31.406Z,84.10
2023-01-13T08:42:57.679Z,84.30
2023-01-13T08:45:25.125Z,84.60
2023-01-13T08:47:51.774Z,84.30
2023-01-13T08:50:18.655Z,83.90
2023-01-13T08:52:44.851Z,83.50
2023-01-13T08:55:11.137Z,82.90
2023-01-13T08:57:37.986Z,83.90
2023-01-13T09:00:05.789Z,83.30
2023-01-13T09:02:32.667Z,82.90
2023-01-13T09:05:03.896Z,82.40
2023-01-13T09:07:30.518Z,82.10
2023-01-13T09:09:56.942Z,82.50
2023-01-13T09:12:41.806Z,83.10
2023-01-13T09:15:09.272Z,83.20
2023-01-13T09:17:35.733Z,84.30
2023-01-13T09:20:02.102Z,83.50
2023-01-13T09:22:28.584Z,84.10
2023-01-13T09:24:56.325Z,85.10
2023-01-13T09:27:22.626Z,85.50
2023-01-13T09:29:49.355Z,86.50
2023-01-13T09:32:16.315Z,88.10
2023-01-13T09:35:00.978Z,88.60
2023-01-13T09:37:37.850Z,88.30
2023-01-13T09:40:06.281Z,87.10
2023-01-13T09:42:58.045Z,87.30
2023-01-13T09:47:22.038Z,87.30
2023-01-13T09:49:48.374Z,87.70
2023-01-13T09:52:26.586Z,87.70
2023-01-13T09:55:17.138Z,88.10
2023-01-13T09:57:43.575Z,88.40
2023-01-13T10:00:21.815Z,87.70
2023-01-13T10:03:14.976Z,88.30
2023-01-13T10:06:04.039Z,88.10
2023-01-13T10:08:36.341Z,88.10
2023-01-13T10:11:23.026Z,88.40
2023-01-13T10:13:58.478Z,88.40
2023-01-13T10:19:44.761Z,89.30
2023-01-13T10:22:56.853Z,89.60
2023-01-13T10:28:55.099Z,90.10
2023-01-13T10:31:21.808Z,87.00
2023-01-13T10:33:49.068Z,88.30
2023-01-13T10:36:17.168Z,88.00
2023-01-13T10:38:47.747Z,87.40
2023-01-13T10:41:28.279Z,87.60
2023-01-13T10:44:08.444Z,88.90
2023-01-13T10:46:49.279Z,86.90
2023-01-13T10:49:32.605Z,86.00
2023-01-13T10:52:00.032Z,87.30
2023-01-13T10:54:27.140Z,86.80
2023-01-13T10:57:20.051Z,87.30
2023-01-13T10:59:47.184Z,86.60
2023-01-13T11:02:31.186Z,86.90
2023-01-13T11:05:10.235Z,85.40
2023-01-13T11:07:52.050Z,83.50
2023-01-13T11:10:26.868Z,84.10
2023-01-13T11:13:31.894Z,82.80
2023-01-13T11:16:17.065Z,83.70
2023-01-13T11:19:02.331Z,82.70
2023-01-13T11:28:19.018Z,81.70
2023-01-13T11:31:12.362Z,81.70
2023-01-13T11:33:43.410Z,81.00
2023-01-13T11:36:33.716Z,82.10
2023-01-13T11:40:37.244Z,80.50
2023-01-13T11:43:21.328Z,79.30
2023-01-13T11:45:55.878Z,79.00
2023-01-13T11:48:27.744Z,78.90
2023-01-13T11:51:24.369Z,77.50
2023-01-13T11:57:33.318Z,76.50
2023-01-13T12:01:49.665Z,77.10
2023-01-13T12:04:48.278Z,77.00
2023-01-13T12:07:36.282Z,78.20
2023-01-13T12:10:17.335Z,78.60
2023-01-13T12:13:10.073Z,80.80
2023-01-13T12:17:14.924Z,80.20
2023-01-13T12:19:41.154Z,80.20
2023-01-13T12:22:46.055Z,81.00
2023-01-13T12:25:33.852Z,81.20
2023-01-13T12:28:18.883Z,80.50
2023-01-13T12:30:50.256Z,80.70
2023-01-13T12:40:09.493Z,82.00
2023-01-13T12:44:16.154Z,80.90
2023-01-13T12:46:52.677Z,80.60
2023-01-13T12:49:26.480Z,81.20
2023-01-13T12:52:06.961Z,79.20
2023-01-13T12:55:08.803Z,80.20
2023-01-13T12:57:35.783Z,79.30
2023-01-13T13:00:20.528Z,80.40
2023-01-13T13:03:19.593Z,79.50
2023-01-13T13:06:48.094Z,79.00
2023-01-13T13:09:42.792Z,80.40
2023-01-13T13:13:19.479Z,81.20
2023-01-13T13:15:51.975Z,80.90
2023-01-13T13:18:24.801Z,80.40
2023-01-13T13:21:16.347Z,80.60
2023-01-13T13:26:21.599Z,82.00
2023-01-13T13:35:57.530Z,80.50
2023-01-13T13:39:11.112Z,80.60
2023-01-13T13:42:03.756Z,80.40
2023-01-13T13:44:51.196Z,80.50
2023-01-13T13:47:17.959Z,80.60
2023-01-13T13:49:57.040Z,80.10
2023-01-13T13:52:50.558Z,79.80
2023-01-13T13:55:24.612Z,80.10
2023-01-13T13:57:55.228Z,80.40
2023-01-13T14:00:32.514Z,80.40
2023-01-13T14:03:03.300Z,79.60
2023-01-13T14:05:33.936Z,80.00
2023-01-13T14:09:01.794Z,79.90
2023-01-13T14:11:31.998Z,80.10
2023-01-13T14:14:13.588Z,81.70
2023-01-13T14:16:40.905Z,80.50
2023-01-13T14:19:18.243Z,81.70
2023-01-13T14:21:47.399Z,80.70
2023-01-13T14:24:15.037Z,80.60
2023-01-13T14:26:41.277Z,80.80
2023-01-13T14:29:10.875Z,81.10
2023-01-13T14:31:37.651Z,81.60
2023-01-13T14:34:32.165Z,81.40
2023-01-13T14:37:00.109Z,81.70
2023-01-13T14:39:35.325Z,82.40
2023-01-13T14:42:01.532Z,86.10
2023-01-13T14:44:36.685Z,88.50
2023-01-13T14:47:15.499Z,90.10
2023-01-13T14:49:51.060Z,90.50
2023-01-13T14:52:21.644Z,91.00
2023-01-13T14:56:13.325Z,91.40
2023-01-13T14:58:39.492Z,91.60
2023-01-13T15:01:25.093Z,92.10
2023-01-13T15:03:51.911Z,92.60
2023-01-13T15:06:23.198Z,93.00
2023-01-13T15:08:49.895Z,93.10
2023-01-13T15:11:25.774Z,93.40
2023-01-13T15:14:01.390Z,93.60
2023-01-13T15:16:29.520Z,94.00
2023-01-13T15:18:57.956Z,94.00
2023-01-13T15:21:24.835Z,94.20
2023-01-13T15:23:52.854Z,94.40
2023-01-13T15:26:28.798Z,94.60
2023-01-13T15:28:56.064Z,94.90
2023-01-13T15:31:22.658Z,94.80
2023-01-13T15:33:49.230Z,95.00
2023-01-13T15:36:28.609Z,95.10
2023-01-13T15:38:55.812Z,95.10
2023-01-13T15:46:37.216Z,95.00
2023-01-13T15:49:12.846Z,95.30
2023-01-13T15:51:39.662Z,94.60
2023-01-13T15:54:09.054Z,94.80
2023-01-13T15:56:36.179Z,94.50
2023-01-13T15:59:03.858Z,94.50
2023-01-13T16:01:30.168Z,94.30
2023-01-13T16:03:57.077Z,94.70
2023-01-13T16:06:32.207Z,94.90
2023-01-13T16:08:59.042Z,95.20
2023-01-13T16:11:26.182Z,95.40
2023-01-13T16:13:53.472Z,95.60
2023-01-13T16:16:25.370Z,95.60
2023-01-13T16:18:52.537Z,95.90
2023-01-13T16:21:19.935Z,96.00
2023-01-13T16:23:47.282Z,96.20
2023-01-13T16:26:24.662Z,96.50
2023-01-13T16:28:51.736Z,96.60
2023-01-13T16:31:23.581Z,96.90
2023-01-13T16:33:50.442Z,97.30
2023-01-13T16:36:18.173Z,97.60
2023-01-13T16:38:45.050Z,97.20
2023-01-13T16:41:11.472Z,97.50
2023-01-13T16:43:37.835Z,98.00
2023-01-13T16:46:24.481Z,98.30
2023-01-13T16:48:55.971Z,98.30
2023-01-13T16:51:22.505Z,99.00
2023-01-13T16:53:49.771Z,99.10
2023-01-13T16:56:27.574Z,99.30
2023-01-13T16:58:56.273Z,99.40
2023-01-13T17:01:30.524Z,99.50
2023-01-13T17:03:58.132Z,99.20
2023-01-13T17:06:28.969Z,99.70
2023-01-13T17:09:00.445Z,99.90
2023-01-13T17:11:26.644Z,99.90
2023-01-13T17:13:52.923Z,99.90
2023-01-13T17:16:21.025Z,99.90
2023-01-13T17:18:48.246Z,99.90
2023-01-13T17:21:15.759Z,99.90
2023-01-13T17:23:42.190Z,99.90
2023-01-13T17:26:28.613Z,99.90
2023-01-13T17:28:55.961Z,99.90
2023-01-13T17:31:23.004Z,99.90
2023-01-13T17:33:49.563Z,99.90
2023-01-13T17:36:16.147Z,99.90
2023-01-13T17:38:42.331Z,99.90
2023-01-13T17:41:08.743Z,99.90
2023-01-13T17:43:34.959Z,99.90
2023-01-13T17:46:01.651Z,99.90
2023-01-13T17:48:29.041Z,99.90
2023-01-13T17:50:56.312Z,99.80
2023-01-13T17:53:23.451Z,99.70
2023-01-13T17:55:53.909Z,99.50
2023-01-13T17:58:20.904Z,99.60
2023-01-13T18:00:47.094Z,99.60
2023-01-13T18:03:13.358Z,99.70
2023-01-13T18:05:40.399Z,99.90
2023-01-13T18:08:09.186Z,99.90
2023-01-13T18:10:35.629Z,99.90
2023-01-13T18:13:02.943Z,99.90
2023-01-13T18:15:30.634Z,99.90
2023-01-13T18:17:57.199Z,99.90
2023-01-13T18:20:42.453Z,99.90
2023-01-13T18:23:35.899Z,99.90
2023-01-13T18:26:34.935Z,99.90
2023-01-13T18:29:01.972Z,99.90
2023-01-13T18:31:29.402Z,99.90
2023-01-13T18:33:56.817Z,99.90
2023-01-13T18:36:23.534Z,99.90
2023-01-13T18:38:50.218Z,99.90
2023-01-13T18:41:35.633Z,99.90
2023-01-13T18:44:02.124Z,99.90
2023-01-13T18:46:28.644Z,99.90
2023-01-13T18:48:54.915Z,99.90
2023-01-13T18:51:21.850Z,99.90
2023-01-13T18:53:48.657Z,99.90
2023-01-13T18:56:15.038Z,99.90
2023-01-13T18:58:48.108Z,99.90
2023-01-13T19:01:14.732Z,99.90
2023-01-13T19:03:41.292Z,99.90
2023-01-13T19:06:11.327Z,99.90
2023-01-13T19:08:38.697Z,99.90
2023-01-13T19:11:06.502Z,99.90
2023-01-13T19:13:34.976Z,99.90
2023-01-13T19:16:08.049Z,99.90
2023-01-13T19:18:37.180Z,99.90
2023-01-13T19:21:04.975Z,99.90
2023-01-13T19:23:32.997Z,99.90
2023-01-13T19:26:06.943Z,99.90
2023-01-13T19:28:33.478Z,99.90
2023-01-13T19:31:01.166Z,99.90
2023-01-13T19:33:29.439Z,99.90
2023-01-13T19:35:56.653Z,99.90
2023-01-13T19:38:24.695Z,99.90
2023-01-13T19:41:00.107Z,99.90
2023-01-13T19:43:45.588Z,99.90
2023-01-13T19:46:13.149Z,99.90
2023-01-13T19:48:42.066Z,99.90
2023-01-13T19:51:09.442Z,99.90
2023-01-13T19:53:36.511Z,99.90
2023-01-13T19:56:03.991Z,99.90
2023-01-13T19:58:30.599Z,99.90
2023-01-13T20:00:57.319Z,99.90
2023-01-13T20:03:31.758Z,99.90
2023-01-13T20:06:06.518Z,99.90
2023-01-13T20:08:33.800Z,99.90
2023-01-13T20:11:46.179Z,99.90
2023-01-13T20:14:15.644Z,99.90
2023-01-13T20:16:43.786Z,99.90
2023-01-13T20:19:10.629Z,99.90
2023-01-13T20:21:37.333Z,99.90
2023-01-13T20:24:04.079Z,99.90
2023-01-13T20:26:30.967Z,99.90
2023-01-13T20:28:58.821Z,99.90
2023-01-13T20:31:25.999Z,99.90
2023-01-13T20:33:52.542Z,99.90
2023-01-13T20:36:30.682Z,99.90
2023-01-13T20:39:00.138Z,99.90
2023-01-13T20:41:45.503Z,99.90
2023-01-13T20:44:12.563Z,99.90
2023-01-13T20:46:41.748Z,99.90
2023-01-13T20:49:10.199Z,99.90
2023-01-13T20:51:37.859Z,99.90
2023-01-13T20:54:04.740Z,99.90
2023-01-13T20:56:32.986Z,99.90
2023-01-13T20:58:59.879Z,99.90
2023-01-13T21:01:28.055Z,99.90
2023-01-13T21:03:58.595Z,99.70
2023-01-13T21:06:25.432Z,99.20
2023-01-13T21:08:53.752Z,98.80
2023-01-13T21:11:39.766Z,98.40
2023-01-13T21:14:34.429Z,97.60
2023-01-13T21:17:03.256Z,97.40
2023-01-13T21:19:30.009Z,96.60
2023-01-13T21:21:57.458Z,96.40
2023-01-13T21:24:26.239Z,95.50
2023-01-13T21:26:59.672Z,95.90
2023-01-13T21:29:26.585Z,96.00
2023-01-13T21:31:54.679Z,95.90
2023-01-13T21:34:23.362Z,95.90
2023-01-13T21:36:50.441Z,96.10
2023-01-13T21:39:20.328Z,96.00
2023-01-13T21:42:05.574Z,96.00
2023-01-13T21:44:50.307Z,96.40
2023-01-13T21:47:36.313Z,96.10
2023-01-13T21:50:03.578Z,96.40
2023-01-13T21:52:30.121Z,96.90
2023-01-13T21:55:16.766Z,97.30
2023-01-13T21:57:48.072Z,97.90
2023-01-13T22:00:16.331Z,98.20
2023-01-13T22:02:43.187Z,98.30
2023-01-13T22:05:10.324Z,98.30
2023-01-13T22:07:37.196Z,98.70
2023-01-13T22:10:05.186Z,98.70
2023-01-13T22:12:32.277Z,98.80
2023-01-13T22:17:27.232Z,99.20
2023-01-13T22:19:54.341Z,99.50
2023-01-13T22:22:21.867Z,99.70
2023-01-13T22:24:49.484Z,99.90
2023-01-13T22:27:26.032Z,99.90
2023-01-13T22:29:53.288Z,99.90
2023-01-13T22:32:20.292Z,99.90
2023-01-13T22:34:48.182Z,99.90
2023-01-13T22:37:14.919Z,99.90
2023-01-13T22:39:41.130Z,99.90
2023-01-13T22:42:09.408Z,99.90
2023-01-13T22:44:35.764Z,99.90
2023-01-13T22:47:02.124Z,99.90
2023-01-13T22:49:28.434Z,99.90
2023-01-13T22:51:54.578Z,99.90
2023-01-13T22:54:21.178Z,99.60
2023-01-13T22:56:49.239Z,99.20
2023-01-13T22:59:15.992Z,98.60
2023-01-13T23:01:42.524Z,98.30
2023-01-13T23:04:10.607Z,98.00
2023-01-13T23:06:37.335Z,97.70
2023-01-13T23:09:04.437Z,97.60
2023-01-13T23:11:31.152Z,97.40
2023-01-13T23:14:01.584Z,97.30
2023-01-13T23:16:29.262Z,97.00
2023-01-13T23:18:55.649Z,96.90
2023-01-13T23:21:25.630Z,96.60
2023-01-13T23:23:52.932Z,96.80
2023-01-13T23:26:19.432Z,96.30
2023-01-13T23:28:46.698Z,96.10
2023-01-13T23:31:15.390Z,96.20
2023-01-13T23:33:42.857Z,96.40
2023-01-13T23:36:12.365Z,96.50
2023-01-13T23:38:39.431Z,97.00
2023-01-13T23:41:10.159Z,97.10
2023-01-13T23:43:36.443Z,96.60
2023-01-13T23:46:07.231Z,97.10
2023-01-13T23:48:33.611Z,97.50
2023-01-13T23:51:01.176Z,97.40
2023-01-13T23:53:33.145Z,97.10
2023-01-13T23:56:00.306Z,96.80
2023-01-13T23:58:27.306Z,97.30
